Time;durP1;ratioP1;P1;durP2;ratioP2;P2;SDS_P1;SDS_P2;PMS_P1;PMS_P2;Temp;Humidity;BMP_temperature;BMP_pressure;BME280_temperature;BME280_humidity;BME280_pressure;Samples;Min_cycle;Max_cycle;Signal;HPM_P1;HPM_P2
2023/10/10 00:00:27;;;;;;;4.53;3.30;;;20.10;99.90;;;;;;5113893;28;20175;-87
2023/10/10 00:02:53;;;;;;;3.70;3.00;;;20.10;99.90;;;;;;5106395;28;20481;-87
2023/10/10 00:05:30;;;;;;;5.47;3.37;;;20.10;99.90;;;;;;5118825;28;20198;-87
2023/10/10 00:07:59;;;;;;;3.87;3.10;;;20.10;99.90;;;;;;5109370;28;20178;-87
2023/10/10 00:10:27;;;;;;;4.23;3.20;;;20.10;99.90;;;;;;5097661;28;20415;-87
2023/10/10 00:12:54;;;;;;;4.90;3.20;;;20.10;99.90;;;;;;5110060;28;20690;-88
2023/10/10 00:15:26;;;;;;;4.40;3.10;;;20.10;99.90;;;;;;5097081;28;20465;-88
2023/10/10 00:17:58;;;;;;;3.60;2.93;;;20.10;99.90;;;;;;5105607;28;20171;-88
2023/10/10 00:20:29;;;;;;;3.47;3.00;;;20.00;99.90;;;;;;5118167;28;20166;-86
2023/10/10 00:22:59;;;;;;;3.53;2.80;;;20.00;99.90;;;;;;5105816;28;20727;-88
2023/10/10 00:25:30;;;;;;;3.33;3.03;;;20.10;99.90;;;;;;5119059;28;20371;-88
2023/10/10 00:28:00;;;;;;;3.73;3.10;;;20.10;99.90;;;;;;5114748;28;20190;-88
2023/10/10 00:30:39;;;;;;;4.17;3.00;;;20.00;99.90;;;;;;5118526;28;20177;-88
2023/10/10 00:33:09;;;;;;;4.67;3.20;;;20.00;99.90;;;;;;5104577;28;20194;-88
2023/10/10 00:35:35;;;;;;;4.10;3.00;;;20.00;99.90;;;;;;5118426;28;20170;-88
2023/10/10 00:38:07;;;;;;;3.40;2.90;;;20.00;99.90;;;;;;5112635;28;20192;-87
2023/10/10 00:40:38;;;;;;;3.50;3.00;;;20.00;99.90;;;;;;5098304;28;20167;-88
2023/10/10 00:43:17;;;;;;;3.70;3.00;;;20.00;99.90;;;;;;5109090;28;20174;-88
2023/10/10 00:45:52;;;;;;;3.60;3.03;;;20.00;99.90;;;;;;5097076;28;20174;-88
2023/10/10 00:48:21;;;;;;;3.20;2.80;;;20.00;99.90;;;;;;5106127;28;20172;-88
2023/10/10 00:50:53;;;;;;;3.67;3.20;;;20.00;99.90;;;;;;5101569;28;20167;-88
2023/10/10 00:53:23;;;;;;;3.30;3.00;;;20.00;99.90;;;;;;5105703;28;20204;-88
2023/10/10 00:55:56;;;;;;;3.60;2.90;;;20.00;99.90;;;;;;5100073;28;20177;-88
2023/10/10 00:58:35;;;;;;;4.20;2.80;;;20.00;99.90;;;;;;5104399;28;20545;-88
2023/10/10 01:01:09;;;;;;;3.77;2.80;;;20.00;99.90;;;;;;5100478;28;20167;-88
2023/10/10 01:03:45;;;;;;;4.33;3.20;;;20.00;99.90;;;;;;5105137;28;20167;-88
2023/10/10 01:06:24;;;;;;;3.10;2.80;;;20.00;99.90;;;;;;5118436;28;20166;-88
2023/10/10 01:09:05;;;;;;;3.97;2.90;;;20.00;99.90;;;;;;5118849;28;20162;-88
2023/10/10 01:11:31;;;;;;;4.13;3.13;;;20.00;99.90;;;;;;5103000;28;20201;-88
2023/10/10 01:13:57;;;;;;;5.43;3.27;;;20.00;99.90;;;;;;5108567;28;20235;-88
2023/10/10 01:16:27;;;;;;;3.33;2.80;;;20.00;99.90;;;;;;5104426;28;20436;-88
2023/10/10 01:18:59;;;;;;;3.10;2.80;;;20.00;99.90;;;;;;5111702;28;20178;-87
2023/10/10 01:21:43;;;;;;;4.97;3.43;;;20.00;99.90;;;;;;5105614;28;20227;-87
2023/10/10 01:24:11;;;;;;;3.53;3.03;;;19.90;99.90;;;;;;5107829;28;20166;-87
2023/10/10 01:26:42;;;;;;;3.93;2.80;;;20.00;99.90;;;;;;5105616;28;20174;-87
2023/10/10 01:31:48;;;;;;;3.30;2.77;;;19.90;99.90;;;;;;5117447;28;20209;-87
2023/10/10 01:34:30;;;;;;;3.50;2.70;;;20.00;99.90;;;;;;5111339;28;20236;-87
2023/10/10 01:37:07;;;;;;;4.27;3.10;;;20.00;99.90;;;;;;5118714;28;20300;-89
2023/10/10 01:40:17;;;;;;;3.67;3.00;;;20.00;99.90;;;;;;5122651;28;20264;-88
2023/10/10 01:43:07;;;;;;;3.80;3.00;;;19.90;99.90;;;;;;5110173;28;20224;-89
2023/10/10 01:45:37;;;;;;;3.70;3.23;;;19.90;99.90;;;;;;5105731;28;20178;-87
2023/10/10 01:48:08;;;;;;;3.03;2.63;;;19.90;99.90;;;;;;5123424;28;20220;-87
2023/10/10 01:50:34;;;;;;;3.87;3.00;;;19.90;99.90;;;;;;5120764;28;20159;-88
2023/10/10 01:53:09;;;;;;;3.67;2.60;;;19.90;99.90;;;;;;5102266;28;20194;-88
2023/10/10 01:55:36;;;;;;;3.60;3.07;;;19.90;99.90;;;;;;5109932;28;20324;-88
2023/10/10 01:58:03;;;;;;;3.37;2.53;;;19.90;99.90;;;;;;5100874;28;20160;-88
2023/10/10 02:00:34;;;;;;;3.10;2.80;;;19.90;99.90;;;;;;5100220;28;20170;-88
2023/10/10 02:03:01;;;;;;;3.07;2.77;;;19.90;99.90;;;;;;5100030;28;20182;-88
2023/10/10 02:07:57;;;;;;;3.07;2.63;;;19.90;99.90;;;;;;5103836;28;20470;-88
2023/10/10 02:10:29;;;;;;;4.27;2.73;;;19.90;99.90;;;;;;5101495;28;20163;-88
2023/10/10 02:12:59;;;;;;;3.97;3.13;;;19.90;99.90;;;;;;5112673;28;20205;-87
2023/10/10 02:15:36;;;;;;;2.97;2.50;;;19.90;99.90;;;;;;5116221;28;20166;-88
2023/10/10 02:18:05;;;;;;;3.57;3.23;;;19.90;99.90;;;;;;5113152;28;20170;-87
2023/10/10 02:20:50;;;;;;;4.73;3.10;;;19.90;99.90;;;;;;5117804;28;20166;-87
2023/10/10 02:23:32;;;;;;;4.17;2.80;;;19.90;99.90;;;;;;5114658;28;20301;-88
2023/10/10 02:26:14;;;;;;;3.70;2.90;;;19.90;99.90;;;;;;5116228;28;20439;-89
2023/10/10 02:28:48;;;;;;;3.60;2.70;;;19.90;99.90;;;;;;5101706;28;20171;-88
2023/10/10 02:31:16;;;;;;;3.57;3.00;;;19.90;99.90;;;;;;5111508;28;20260;-88
2023/10/10 02:33:49;;;;;;;3.47;2.80;;;19.90;99.90;;;;;;5107430;28;20274;-88
2023/10/10 02:36:16;;;;;;;3.30;2.43;;;19.90;99.90;;;;;;5107663;28;20178;-88
2023/10/10 02:38:55;;;;;;;3.20;2.80;;;19.90;99.90;;;;;;5122056;28;20181;-88
2023/10/10 02:41:48;;;;;;;3.20;2.80;;;19.90;99.90;;;;;;5116507;28;20494;-88
2023/10/10 02:44:25;;;;;;;3.07;2.77;;;19.90;99.90;;;;;;5116547;28;20166;-88
2023/10/10 02:46:54;;;;;;;3.67;2.80;;;19.90;99.90;;;;;;5113365;28;20192;-88
2023/10/10 02:49:23;;;;;;;3.63;3.07;;;19.90;99.90;;;;;;5113043;28;20170;-88
2023/10/10 02:51:51;;;;;;;3.30;2.97;;;19.90;99.90;;;;;;5114454;28;20197;-88
2023/10/10 02:59:53;;;;;;;3.27;2.60;;;19.90;99.90;;;;;;5115813;28;20184;-88
2023/10/10 03:02:22;;;;;;;4.00;2.90;;;19.90;99.90;;;;;;5111743;28;20637;-88
2023/10/10 03:07:52;;;;;;;3.27;2.67;;;19.90;99.90;;;;;;5110263;28;20182;-88
2023/10/10 03:10:38;;;;;;;3.17;2.87;;;19.90;99.90;;;;;;5100922;28;20171;-88
2023/10/10 03:13:13;;;;;;;3.23;2.93;;;19.90;99.90;;;;;;5109209;28;20198;-88
2023/10/10 03:15:40;;;;;;;2.73;2.50;;;19.90;99.90;;;;;;5101378;28;20502;-88
2023/10/10 05:25:24;;;;;;;3.27;2.60;;;19.70;99.90;;;;;;5092572;28;20437;-88
2023/10/10 05:27:58;;;;;;;3.67;2.70;;;19.70;99.90;;;;;;5097445;28;20206;-89
2023/10/10 05:30:25;;;;;;;2.87;2.57;;;19.70;99.90;;;;;;5091276;28;20486;-88
2023/10/10 05:33:04;;;;;;;3.17;2.60;;;19.70;99.90;;;;;;5101033;28;20301;-88
2023/10/10 05:35:39;;;;;;;2.93;2.40;;;19.70;99.90;;;;;;5091101;28;20174;-88
2023/10/10 05:38:09;;;;;;;3.73;2.87;;;19.70;99.90;;;;;;5105654;28;20185;-88
2023/10/10 05:40:38;;;;;;;3.30;2.73;;;19.70;99.90;;;;;;5094672;28;20171;-88
2023/10/10 05:43:09;;;;;;;4.13;2.90;;;19.70;99.90;;;;;;5104035;28;20484;-88
2023/10/10 05:45:44;;;;;;;3.00;2.70;;;19.70;99.90;;;;;;5099938;28;20171;-88
2023/10/10 05:48:11;;;;;;;3.00;2.70;;;19.70;99.90;;;;;;5101313;28;20175;-87
2023/10/10 05:50:41;;;;;;;4.20;2.90;;;19.70;99.90;;;;;;5115817;28;20342;-87
2023/10/10 05:53:07;;;;;;;3.83;2.73;;;19.70;99.90;;;;;;5111028;28;20194;-87
2023/10/10 05:55:34;;;;;;;4.10;2.90;;;19.70;99.90;;;;;;5096263;28;20467;-87
2023/10/10 05:58:02;;;;;;;3.17;2.70;;;19.70;99.90;;;;;;5101391;28;20170;-88
2023/10/10 06:00:32;;;;;;;3.10;2.60;;;19.70;99.90;;;;;;5101189;28;20175;-88
2023/10/10 06:02:58;;;;;;;4.00;2.57;;;19.70;99.90;;;;;;5097355;28;20237;-87
2023/10/10 06:05:24;;;;;;;3.13;2.83;;;19.70;99.90;;;;;;5116054;28;20194;-87
2023/10/10 06:07:51;;;;;;;3.30;2.60;;;19.70;99.90;;;;;;5113705;28;20204;-88
2023/10/10 06:10:17;;;;;;;3.13;2.50;;;19.70;99.90;;;;;;5102093;28;20170;-89
2023/10/10 06:12:47;;;;;;;3.07;2.70;;;19.70;99.90;;;;;;5110970;28;20279;-87
2023/10/10 06:15:17;;;;;;;3.40;2.80;;;19.70;99.90;;;;;;5099596;28;20159;-87
2023/10/10 06:18:08;;;;;;;3.30;2.60;;;19.70;99.90;;;;;;5101072;28;20280;-88
2023/10/10 06:20:41;;;;;;;2.63;2.43;;;19.70;99.90;;;;;;5104409;28;20191;-88
2023/10/10 06:23:11;;;;;;;3.37;2.80;;;19.70;99.90;;;;;;5094760;28;20269;-87
2023/10/10 06:25:38;;;;;;;3.87;3.17;;;19.70;99.90;;;;;;5102316;28;20273;-88
2023/10/10 06:28:05;;;;;;;9.23;2.90;;;19.70;99.90;;;;;;5114156;28;20185;-88
2023/10/10 06:30:36;;;;;;;3.27;2.87;;;19.70;99.90;;;;;;5105203;28;20159;-88
2023/10/10 06:33:15;;;;;;;3.23;2.87;;;19.70;99.90;;;;;;5112887;28;20214;-87
2023/10/10 06:35:47;;;;;;;4.00;3.30;;;19.70;99.90;;;;;;5108310;28;20162;-88
2023/10/10 06:38:12;;;;;;;6.10;3.10;;;19.70;99.90;;;;;;5093053;28;20720;-88
2023/10/10 06:40:52;;;;;;;3.40;3.10;;;19.70;99.90;;;;;;5104096;28;20163;-88
2023/10/10 06:43:32;;;;;;;3.83;3.20;;;19.70;99.90;;;;;;5093123;28;20380;-88
2023/10/10 06:45:58;;;;;;;5.17;3.13;;;19.70;99.90;;;;;;5099345;28;20187;-87
2023/10/10 06:48:32;;;;;;;6.83;3.50;;;19.70;99.90;;;;;;5088234;28;20171;-89
2023/10/10 06:51:00;;;;;;;6.10;3.50;;;19.70;99.90;;;;;;5099407;28;20279;-87
2023/10/10 06:53:34;;;;;;;5.73;3.50;;;19.70;99.90;;;;;;5105900;28;20430;-87
2023/10/10 06:56:15;;;;;;;4.90;3.60;;;19.70;99.90;;;;;;5094911;28;20174;-88
2023/10/10 06:58:44;;;;;;;7.27;3.87;;;19.70;99.90;;;;;;5112446;28;20208;-87
2023/10/10 07:01:19;;;;;;;7.97;4.33;;;19.70;99.90;;;;;;5109895;28;20166;-87
2023/10/10 07:03:54;;;;;;;6.53;5.00;;;19.70;99.90;;;;;;5109606;28;20165;-87
2023/10/10 07:06:21;;;;;;;7.97;4.23;;;19.80;99.90;;;;;;5096950;28;20174;-87
2023/10/10 07:09:14;;;;;;;6.53;4.30;;;19.80;99.90;;;;;;5110241;28;20166;-87
2023/10/10 07:11:38;;;;;;;7.37;4.47;;;19.70;99.90;;;;;;5096022;28;20583;-88
2023/10/10 07:14:07;;;;;;;7.57;4.97;;;19.80;99.90;;;;;;5088927;28;20319;-88
2023/10/10 07:16:35;;;;;;;8.00;4.80;;;19.80;99.90;;;;;;5103631;28;20176;-88
2023/10/10 07:19:18;;;;;;;9.80;5.37;;;19.80;99.90;;;;;;5090324;28;20211;-88
2023/10/10 07:21:50;;;;;;;7.43;4.87;;;19.90;99.90;;;;;;5093187;28;20201;-88
2023/10/10 07:24:18;;;;;;;6.70;5.10;;;19.90;99.90;;;;;;5109365;28;20170;-88
2023/10/10 07:26:58;;;;;;;7.83;4.77;;;19.90;99.90;;;;;;5088264;28;20290;-87
2023/10/10 07:29:30;;;;;;;7.97;4.97;;;19.90;99.90;;;;;;5046052;28;20191;-87
2023/10/10 07:32:16;;;;;;;7.47;5.37;;;19.90;99.90;;;;;;5048875;28;20262;-87
2023/10/10 07:34:49;;;;;;;8.30;5.13;;;19.90;99.90;;;;;;5048319;28;20533;-87
2023/10/10 07:37:18;;;;;;;7.63;5.50;;;19.90;99.90;;;;;;5054967;28;20545;-88
2023/10/10 07:42:49;;;;;;;7.80;5.40;;;20.00;99.90;;;;;;5031289;28;20369;-88
2023/10/10 07:45:16;;;;;;;8.90;5.40;;;20.00;99.90;;;;;;5051373;28;20183;-88
2023/10/10 07:50:35;;;;;;;7.73;5.87;;;20.10;99.90;;;;;;5059674;28;20217;-88
2023/10/10 07:53:12;;;;;;;8.30;5.40;;;20.20;99.90;;;;;;5062089;28;20188;-88
2023/10/10 07:55:52;;;;;;;7.57;5.47;;;20.20;99.90;;;;;;5073123;28;20170;-88
2023/10/10 07:58:23;;;;;;;7.37;5.40;;;20.20;99.90;;;;;;5054998;28;20175;-87
2023/10/10 08:00:54;;;;;;;9.00;5.73;;;20.30;99.90;;;;;;5050015;28;20160;-87
2023/10/10 08:03:20;;;;;;;8.63;5.20;;;20.30;99.90;;;;;;5063500;28;20322;-87
2023/10/10 08:05:53;;;;;;;8.83;5.40;;;20.30;99.90;;;;;;5071484;28;20179;-88
2023/10/10 08:08:19;;;;;;;9.17;5.60;;;20.40;99.90;;;;;;5058484;28;20209;-88
2023/10/10 08:10:51;;;;;;;9.20;5.43;;;20.40;99.90;;;;;;5071169;28;20270;-88
2023/10/10 08:13:20;;;;;;;6.53;4.77;;;20.40;99.90;;;;;;5059931;28;20445;-88
2023/10/10 08:18:40;;;;;;;6.83;5.17;;;20.40;99.90;;;;;;5048331;28;20463;-87
2023/10/10 08:23:30;;;;;;;7.37;5.20;;;20.40;99.90;;;;;;5046339;28;20455;-88
2023/10/10 08:25:56;;;;;;;8.07;5.23;;;20.40;99.90;;;;;;5048693;28;20183;-87
2023/10/10 08:28:24;;;;;;;8.63;5.93;;;20.50;99.90;;;;;;5060282;28;20269;-87
2023/10/10 08:30:50;;;;;;;7.63;4.97;;;20.50;99.90;;;;;;5051230;28;20180;-86
2023/10/10 08:33:19;;;;;;;7.10;4.53;;;20.50;99.90;;;;;;5053081;28;20226;-88
2023/10/10 08:35:47;;;;;;;7.27;4.83;;;20.50;99.90;;;;;;5052888;28;20469;-87
2023/10/10 08:38:14;;;;;;;6.87;4.57;;;20.50;99.90;;;;;;5053556;28;20712;-87
2023/10/10 08:40:43;;;;;;;6.10;4.47;;;20.50;99.90;;;;;;5056561;28;20276;-87
2023/10/10 08:43:09;;;;;;;7.93;4.90;;;20.60;99.90;;;;;;5052367;28;20466;-88
2023/10/10 08:45:43;;;;;;;7.63;5.03;;;20.60;99.90;;;;;;5059709;28;20234;-88
2023/10/10 08:48:15;;;;;;;7.13;4.80;;;20.60;99.90;;;;;;5052556;28;20232;-88
2023/10/10 08:50:42;;;;;;;6.63;4.63;;;20.60;99.90;;;;;;5061066;28;20174;-87
2023/10/10 08:53:13;;;;;;;8.63;5.23;;;20.60;99.90;;;;;;5067891;28;20191;-87
2023/10/10 08:55:41;;;;;;;8.80;4.90;;;20.60;99.90;;;;;;5060041;28;20207;-88
2023/10/10 08:58:07;;;;;;;6.73;4.77;;;20.70;99.90;;;;;;5050251;28;20199;-86
2023/10/10 09:00:35;;;;;;;7.00;4.63;;;20.70;99.90;;;;;;5056837;28;20321;-87
2023/10/10 09:03:01;;;;;;;6.47;4.50;;;20.70;99.90;;;;;;5067171;28;20408;-88
2023/10/10 09:05:28;;;;;;;7.10;4.70;;;20.70;99.90;;;;;;5059758;28;20578;-87
2023/10/10 09:07:54;;;;;;;6.43;4.53;;;20.70;99.90;;;;;;5048241;28;20515;-87
2023/10/10 09:10:28;;;;;;;5.73;4.17;;;20.70;99.90;;;;;;5053779;28;20222;-87
2023/10/10 09:15:21;;;;;;;6.13;4.57;;;20.80;99.90;;;;;;5057389;28;20414;-87
2023/10/10 09:17:48;;;;;;;6.30;4.63;;;20.80;99.90;;;;;;5066841;28;20176;-88
2023/10/10 09:20:28;;;;;;;5.53;4.10;;;20.80;99.90;;;;;;5070618;28;20182;-87
2023/10/10 09:22:58;;;;;;;6.83;4.37;;;20.80;99.90;;;;;;5058414;28;20168;-88
2023/10/10 09:25:41;;;;;;;6.73;4.43;;;20.80;99.90;;;;;;5062857;28;20347;-87
2023/10/10 09:28:10;;;;;;;4.90;4.07;;;20.90;99.90;;;;;;5069160;28;20300;-86
2023/10/10 09:30:49;;;;;;;6.43;4.37;;;20.90;99.90;;;;;;5062159;28;20524;-87
2023/10/10 09:33:23;;;;;;;5.93;4.47;;;20.90;99.90;;;;;;5052941;28;20214;-87
2023/10/10 09:36:09;;;;;;;5.40;4.03;;;20.90;99.90;;;;;;5053805;28;20173;-88
2023/10/10 09:38:48;;;;;;;4.93;4.20;;;20.90;99.90;;;;;;5029533;28;20274;-87
2023/10/10 10:06:02;;;;;;;4.90;3.57;;;21.10;99.90;;;;;;5066111;28;20178;-87
2023/10/10 10:09:08;;;;;;;6.90;4.20;;;21.10;99.90;;;;;;5060517;28;20195;-87
2023/10/10 10:11:59;;;;;;;5.80;4.10;;;21.10;99.90;;;;;;5065468;28;20296;-88
2023/10/10 10:14:36;;;;;;;6.00;4.00;;;21.20;99.90;;;;;;5051549;28;20184;-88
2023/10/10 10:17:15;;;;;;;4.53;3.90;;;21.10;99.90;;;;;;5062892;28;20175;-88
2023/10/10 10:19:45;;;;;;;6.10;4.30;;;21.20;99.90;;;;;;5050007;28;20269;-88
2023/10/10 10:22:18;;;;;;;4.43;3.90;;;21.20;99.90;;;;;;5047927;28;20183;-88
2023/10/10 10:24:45;;;;;;;5.43;4.20;;;21.20;99.90;;;;;;5062955;28;20467;-87
2023/10/10 10:30:39;;;;;;;4.77;4.03;;;21.20;99.90;;;;;;5050451;28;20183;-87
2023/10/10 10:32:48;;;;;;;5.60;3.80;;;21.20;99.90;;;;;;5067395;28;20497;-87
2023/10/10 10:35:25;;;;;;;4.67;3.53;;;21.20;99.90;;;;;;5058919;28;20175;-87
2023/10/10 10:38:00;;;;;;;4.97;3.83;;;21.30;99.90;;;;;;5054621;28;20191;-87
2023/10/10 10:43:16;;;;;;;6.57;4.03;;;21.30;99.90;;;;;;5065808;28;20562;-88
2023/10/10 10:45:51;;;;;;;5.47;3.70;;;21.30;99.90;;;;;;5049770;28;20210;-88
2023/10/10 10:48:33;;;;;;;4.30;3.87;;;21.40;99.90;;;;;;5060950;28;20179;-88
2023/10/10 10:51:23;;;;;;;6.33;4.20;;;21.40;99.90;;;;;;5030933;28;20351;-87
2023/10/10 10:53:56;;;;;;;6.67;3.80;;;21.40;99.90;;;;;;5056273;28;20271;-87
2023/10/10 11:01:28;;;;;;;7.00;4.13;;;21.60;99.90;;;;;;5030157;28;20605;-87
2023/10/10 11:03:55;;;;;;;5.03;3.90;;;21.70;99.90;;;;;;5055608;28;20189;-88
2023/10/10 11:06:24;;;;;;;6.07;3.93;;;21.70;99.90;;;;;;5047814;28;20176;-88
2023/10/10 11:09:08;;;;;;;6.80;4.00;;;21.60;99.90;;;;;;5057635;28;20375;-87
2023/10/10 11:11:40;;;;;;;6.83;4.70;;;21.60;99.90;;;;;;5025696;28;20412;-87
2023/10/10 11:14:18;;;;;;;6.87;3.90;;;21.50;99.90;;;;;;5024383;28;20176;-87
2023/10/10 11:16:45;;;;;;;5.03;3.80;;;21.50;99.90;;;;;;5026334;28;20187;-87
2023/10/10 11:21:53;;;;;;;5.97;3.53;;;21.50;99.90;;;;;;5051928;28;20279;-88
2023/10/10 11:24:26;;;;;;;6.00;3.83;;;21.50;99.90;;;;;;5046133;28;20169;-87
2023/10/10 11:29:29;;;;;;;6.13;3.97;;;21.50;99.90;;;;;;5043923;28;20354;-87
2023/10/10 11:32:11;;;;;;;6.80;3.70;;;21.50;99.90;;;;;;5042545;28;20196;-88
2023/10/10 11:34:44;;;;;;;4.47;3.60;;;21.50;99.90;;;;;;5034146;28;20180;-87
2023/10/10 11:37:32;;;;;;;5.37;3.53;;;21.50;99.90;;;;;;5044308;28;20480;-88
2023/10/10 11:42:59;;;;;;;6.20;3.83;;;21.50;99.90;;;;;;5060193;28;20205;-86
2023/10/10 11:45:26;;;;;;;6.67;3.57;;;21.50;99.90;;;;;;5064540;28;20172;-86
2023/10/10 11:47:53;;;;;;;5.30;3.73;;;21.50;99.90;;;;;;5048631;28;20280;-87
2023/10/10 11:50:29;;;;;;;4.97;3.90;;;21.50;99.90;;;;;;5058499;28;20243;-86
2023/10/10 11:52:58;;;;;;;4.87;3.53;;;21.50;99.90;;;;;;5046795;28;20404;-87
2023/10/10 11:55:25;;;;;;;4.70;3.73;;;21.50;99.90;;;;;;5051646;28;20534;-87
2023/10/10 11:57:57;;;;;;;5.17;3.73;;;21.50;99.90;;;;;;5072408;28;20177;-87
2023/10/10 12:00:30;;;;;;;5.27;3.90;;;21.50;99.90;;;;;;5067152;28;20279;-87
2023/10/10 12:02:57;;;;;;;4.87;3.80;;;21.50;99.90;;;;;;5066040;28;20520;-87
2023/10/10 12:07:59;;;;;;;5.77;3.80;;;21.50;99.90;;;;;;5063313;28;20167;-87
2023/10/10 12:10:47;;;;;;;5.13;3.40;;;21.50;99.90;;;;;;5062989;28;20229;-87
2023/10/10 12:13:19;;;;;;;4.80;3.77;;;21.50;99.90;;;;;;5052891;28;20212;-87
2023/10/10 12:15:45;;;;;;;6.13;3.63;;;21.50;99.90;;;;;;5053699;28;20175;-86
2023/10/10 12:18:11;;;;;;;3.90;3.30;;;21.50;99.90;;;;;;5053642;28;20179;-86
2023/10/10 12:20:46;;;;;;;6.67;3.70;;;21.60;99.90;;;;;;5074648;28;20168;-86
2023/10/10 12:23:13;;;;;;;5.13;3.47;;;21.50;99.90;;;;;;5072872;28;20498;-87
2023/10/10 12:25:42;;;;;;;4.87;3.67;;;21.60;99.90;;;;;;5065766;28;20192;-86
2023/10/10 12:28:12;;;;;;;4.43;3.30;;;21.50;99.90;;;;;;5053882;28;20456;-87
2023/10/10 12:30:42;;;;;;;5.80;3.77;;;21.60;99.90;;;;;;5052139;28;20300;-86
2023/10/10 12:33:15;;;;;;;5.03;3.37;;;21.50;99.90;;;;;;5047469;28;20631;-86
2023/10/10 12:35:52;;;;;;;5.70;3.60;;;21.60;99.90;;;;;;5050890;28;20175;-87
2023/10/10 12:38:21;;;;;;;5.40;3.53;;;21.60;99.90;;;;;;5055723;28;20194;-86
2023/10/10 12:40:56;;;;;;;4.77;3.57;;;21.60;99.90;;;;;;5065664;28;20213;-87
2023/10/10 12:43:24;;;;;;;4.57;3.50;;;21.60;99.90;;;;;;5045393;28;20225;-87
2023/10/10 12:45:56;;;;;;;5.40;3.63;;;21.60;99.90;;;;;;5063400;28;20360;-87
2023/10/10 12:48:22;;;;;;;5.13;3.67;;;21.60;99.90;;;;;;5058059;28;20419;-87
2023/10/10 12:50:51;;;;;;;5.93;3.60;;;21.60;99.90;;;;;;5046032;28;20412;-87
2023/10/10 12:53:19;;;;;;;4.97;3.60;;;21.60;99.90;;;;;;5059745;28;20199;-86
2023/10/10 12:55:52;;;;;;;4.73;3.47;;;21.60;99.90;;;;;;5071301;28;20175;-86
2023/10/10 12:58:23;;;;;;;4.33;3.50;;;21.60;99.90;;;;;;5056108;28;20169;-86
2023/10/10 13:00:50;;;;;;;4.80;3.60;;;21.60;99.90;;;;;;5068579;28;20195;-86
2023/10/10 13:03:28;;;;;;;6.07;4.00;;;21.60;99.90;;;;;;5061840;28;20170;-86
2023/10/10 13:06:04;;;;;;;5.50;3.33;;;21.60;99.90;;;;;;5049506;28;20180;-86
2023/10/10 13:11:44;;;;;;;6.00;3.57;;;21.60;99.90;;;;;;5042684;28;20185;-87
2023/10/10 13:14:18;;;;;;;4.97;3.77;;;21.60;99.90;;;;;;5061090;28;20178;-86
2023/10/10 13:19:14;;;;;;;5.17;3.70;;;21.60;99.90;;;;;;5050290;28;20165;-86
2023/10/10 13:21:42;;;;;;;5.67;3.90;;;21.60;99.90;;;;;;5058259;28;20194;-85
2023/10/10 13:24:15;;;;;;;6.53;4.00;;;21.60;99.90;;;;;;5055211;28;20808;-86
2023/10/10 13:26:45;;;;;;;5.30;3.40;;;21.60;99.90;;;;;;5080942;28;20171;-87
2023/10/10 13:29:13;;;;;;;6.47;3.63;;;21.60;99.90;;;;;;5073585;28;20270;-86
2023/10/10 13:31:41;;;;;;;4.90;3.83;;;21.60;99.90;;;;;;5079951;28;20178;-86
2023/10/10 13:34:06;;;;;;;5.73;3.40;;;21.70;99.90;;;;;;5061056;28;20394;-87
2023/10/10 13:36:32;;;;;;;4.70;3.30;;;21.60;99.90;;;;;;5055691;28;20161;-87
2023/10/10 13:39:00;;;;;;;5.17;3.27;;;21.70;99.90;;;;;;5057630;28;20401;-86
2023/10/10 13:41:29;;;;;;;5.43;3.70;;;21.70;99.90;;;;;;5070519;28;20202;-86
2023/10/10 13:44:02;;;;;;;4.80;3.17;;;21.70;99.90;;;;;;5063607;28;20186;-86
2023/10/10 13:46:32;;;;;;;5.40;3.70;;;21.70;99.90;;;;;;5053234;28;20176;-86
2023/10/10 13:48:59;;;;;;;5.27;3.50;;;21.70;99.90;;;;;;5060842;28;20256;-87
2023/10/10 13:51:28;;;;;;;4.23;3.40;;;21.70;99.90;;;;;;5074388;28;20229;-87
2023/10/10 13:53:55;;;;;;;6.63;3.47;;;21.70;99.90;;;;;;5066660;28;20218;-87
2023/10/10 13:56:21;;;;;;;4.97;3.67;;;21.70;99.90;;;;;;5060085;28;20173;-86
2023/10/10 13:58:47;;;;;;;6.50;3.70;;;21.70;99.90;;;;;;5057923;28;20169;-87
2023/10/10 14:01:29;;;;;;;4.53;3.50;;;21.70;99.90;;;;;;5059837;28;20245;-87
2023/10/10 14:04:04;;;;;;;4.70;3.50;;;21.70;99.90;;;;;;5051364;28;20176;-87
2023/10/10 14:06:45;;;;;;;5.30;3.70;;;21.70;99.90;;;;;;5069844;28;20174;-87
2023/10/10 14:09:24;;;;;;;4.87;3.73;;;21.80;99.90;;;;;;5066343;28;20264;-87
2023/10/10 14:11:56;;;;;;;8.07;3.40;;;21.70;99.90;;;;;;5064144;28;20382;-88
2023/10/10 14:14:22;;;;;;;5.73;3.50;;;21.80;99.90;;;;;;5066384;28;21296;-87
2023/10/10 14:16:50;;;;;;;5.70;3.50;;;21.80;99.90;;;;;;5054684;28;20362;-85
2023/10/10 14:19:16;;;;;;;5.43;3.50;;;21.80;99.90;;;;;;5043885;28;20164;-85
2023/10/10 14:21:42;;;;;;;6.33;4.20;;;21.80;99.90;;;;;;5052591;28;20179;-86
2023/10/10 14:24:08;;;;;;;5.73;3.47;;;21.80;99.90;;;;;;5045204;28;20225;-86
2023/10/10 14:26:37;;;;;;;4.97;3.60;;;21.80;99.90;;;;;;5054400;28;20178;-87
2023/10/10 14:29:07;;;;;;;5.67;3.70;;;21.80;99.90;;;;;;5067299;28;20623;-86
2023/10/10 14:31:45;;;;;;;5.10;3.37;;;21.80;99.90;;;;;;5059154;28;20230;-86
2023/10/10 14:34:38;;;;;;;5.80;3.67;;;21.80;99.90;;;;;;5050494;28;20198;-87
2023/10/10 14:37:01;;;;;;;5.23;3.37;;;21.80;99.90;;;;;;5061110;28;20222;-87
2023/10/10 14:39:31;;;;;;;6.93;3.77;;;21.80;99.90;;;;;;5051212;28;20184;-87
2023/10/10 14:41:58;;;;;;;4.53;3.33;;;21.80;99.90;;;;;;5064642;28;20185;-86
2023/10/10 14:44:26;;;;;;;6.63;3.57;;;21.90;99.90;;;;;;5054400;28;20245;-86
2023/10/10 14:46:54;;;;;;;4.60;3.47;;;21.90;99.90;;;;;;5071234;28;20191;-86
2023/10/10 14:49:29;;;;;;;4.47;3.33;;;21.90;99.90;;;;;;5067435;28;20403;-86
2023/10/10 14:52:05;;;;;;;5.77;3.47;;;21.90;99.90;;;;;;5072356;28;20453;-85
2023/10/10 14:54:37;;;;;;;6.10;3.60;;;21.90;99.90;;;;;;5057269;28;20166;-85
2023/10/10 14:57:04;;;;;;;6.23;3.50;;;21.90;99.90;;;;;;5056606;28;20168;-85
2023/10/10 14:59:35;;;;;;;4.43;3.47;;;21.90;99.90;;;;;;5044396;28;20175;-86
2023/10/10 15:02:04;;;;;;;5.13;3.33;;;21.90;99.90;;;;;;5056121;28;20172;-87
2023/10/10 15:04:33;;;;;;;6.30;3.50;;;21.90;99.90;;;;;;5064352;28;20324;-86
2023/10/10 15:06:59;;;;;;;4.80;3.70;;;21.90;99.90;;;;;;5055087;28;20179;-86
2023/10/10 15:09:25;;;;;;;5.23;3.60;;;21.90;99.90;;;;;;5065407;28;20168;-87
2023/10/10 15:11:53;;;;;;;6.13;3.60;;;21.90;99.90;;;;;;5064437;28;20411;-87
2023/10/10 15:14:19;;;;;;;5.90;3.17;;;21.90;99.90;;;;;;5063733;28;20172;-86
2023/10/10 15:16:48;;;;;;;4.33;3.33;;;21.90;99.90;;;;;;5055615;28;20444;-86
2023/10/10 15:19:15;;;;;;;5.27;3.20;;;21.90;99.90;;;;;;5055512;28;20278;-87
2023/10/10 15:21:40;;;;;;;5.70;3.77;;;21.90;99.90;;;;;;5056538;28;20341;-87
2023/10/10 15:24:11;;;;;;;4.47;3.30;;;21.90;99.90;;;;;;5053278;28;20334;-86
2023/10/10 15:26:40;;;;;;;6.50;3.87;;;21.90;99.90;;;;;;5060564;28;20193;-86
2023/10/10 15:29:10;;;;;;;6.23;3.27;;;21.90;99.90;;;;;;5055111;28;20553;-86
2023/10/10 15:31:38;;;;;;;8.10;3.90;;;21.90;99.90;;;;;;5071419;28;20183;-87
2023/10/10 15:34:04;;;;;;;5.07;3.23;;;21.90;99.90;;;;;;5067234;28;20199;-87
2023/10/10 15:36:30;;;;;;;4.20;3.33;;;21.90;99.90;;;;;;5051203;28;20180;-87
2023/10/10 15:39:09;;;;;;;5.97;3.50;;;22.00;99.90;;;;;;5051614;28;20413;-86
2023/10/10 15:41:36;;;;;;;5.23;3.50;;;22.00;99.90;;;;;;5061530;28;20165;-86
2023/10/10 15:44:03;;;;;;;4.83;3.27;;;22.00;99.90;;;;;;5052639;28;20240;-86
2023/10/10 15:46:34;;;;;;;4.77;3.33;;;22.00;99.90;;;;;;5064251;28;20562;-87
2023/10/10 15:49:02;;;;;;;4.27;3.37;;;22.00;99.90;;;;;;5053179;28;20267;-86
2023/10/10 15:51:38;;;;;;;5.10;3.50;;;22.00;99.90;;;;;;5064129;28;20175;-86
2023/10/10 15:54:09;;;;;;;4.67;2.97;;;22.00;99.90;;;;;;5060766;28;20197;-87
2023/10/10 15:56:36;;;;;;;4.90;3.20;;;22.00;99.90;;;;;;5069544;28;20170;-87
2023/10/10 15:59:02;;;;;;;5.07;3.07;;;22.00;99.90;;;;;;5055242;28;20179;-87
2023/10/10 16:01:30;;;;;;;4.80;3.30;;;22.00;99.90;;;;;;5066066;28;20238;-87
2023/10/10 16:04:12;;;;;;;4.00;3.17;;;22.00;99.90;;;;;;5050699;28;20172;-87
2023/10/10 16:06:39;;;;;;;4.43;3.20;;;22.00;99.90;;;;;;5026478;28;20243;-88
2023/10/10 16:09:11;;;;;;;5.00;3.30;;;22.00;99.90;;;;;;5045287;28;20432;-88
2023/10/10 16:11:41;;;;;;;4.27;3.10;;;22.00;99.90;;;;;;5042153;28;20175;-88
2023/10/10 16:14:14;;;;;;;5.37;3.70;;;22.00;99.90;;;;;;5041630;28;20207;-87
2023/10/10 16:16:43;;;;;;;6.37;3.10;;;22.00;99.90;;;;;;5061306;28;20249;-87
2023/10/10 16:19:13;;;;;;;4.40;3.10;;;22.00;99.90;;;;;;5060939;28;20167;-86
2023/10/10 16:21:40;;;;;;;4.03;3.27;;;22.00;99.90;;;;;;5047299;28;20169;-86
2023/10/10 16:24:10;;;;;;;5.00;3.37;;;22.00;99.90;;;;;;5055999;28;20216;-87
2023/10/10 16:26:36;;;;;;;5.13;3.40;;;22.00;99.90;;;;;;5052101;28;20180;-87
2023/10/10 16:29:05;;;;;;;5.93;3.13;;;22.00;99.90;;;;;;5055105;28;20183;-87
2023/10/10 16:31:32;;;;;;;4.57;3.00;;;22.00;99.90;;;;;;5052293;28;20376;-87
2023/10/10 16:33:58;;;;;;;6.07;3.50;;;22.00;99.90;;;;;;5044976;28;20246;-86
2023/10/10 16:36:24;;;;;;;4.37;3.07;;;22.00;99.90;;;;;;5075384;28;20203;-88